createdAt,value
2017-01-20T00:00:14.534Z,967.18
2017-01-20T00:01:14.968Z,967.18
2017-01-20T00:02:13.586Z,967.24
2017-01-20T00:03:14.408Z,967.20
2017-01-20T00:04:13.877Z,967.17
2017-01-20T00:05:11.725Z,967.13
2017-01-20T00:06:13.179Z,967.15
2017-01-20T00:07:12.575Z,967.12
2017-01-20T00:08:13.497Z,967.07
2017-01-20T00:09:14.106Z,967.11
2017-01-20T00:10:15.635Z,967.06
2017-01-20T00:11:15.832Z,967.11
2017-01-20T00:12:14.889Z,967.10
2017-01-20T00:13:12.325Z,967.07
2017-01-20T00:14:12.509Z,967.08
2017-01-20T00:15:12.520Z,967.06
2017-01-20T00:16:13.316Z,967.06
2017-01-20T00:17:13.139Z,967.12
2017-01-20T00:18:12.589Z,967.11
2017-01-20T00:19:15.658Z,967.10
2017-01-20T00:20:14.386Z,967.10
2017-01-20T00:21:14.300Z,967.16
2017-01-20T00:22:13.605Z,967.18
2017-01-20T00:23:12.964Z,967.21
2017-01-20T00:24:12.861Z,967.21
2017-01-20T00:25:12.277Z,967.16
2017-01-20T00:26:12.302Z,967.16
2017-01-20T00:27:12.917Z,967.21
2017-01-20T00:28:12.375Z,967.13
2017-01-20T00:29:17.114Z,967.17
2017-01-20T00:30:12.150Z,967.18
2017-01-20T00:31:13.160Z,967.12
2017-01-20T00:32:13.324Z,967.16
2017-01-20T00:33:12.552Z,967.22
2017-01-20T00:34:13.170Z,967.24
2017-01-20T00:35:12.972Z,967.25
2017-01-20T00:36:11.901Z,967.26
2017-01-20T00:37:12.052Z,967.25
2017-01-20T00:38:18.646Z,967.29
2017-01-20T00:39:14.067Z,967.31
2017-01-20T00:40:12.357Z,967.27
2017-01-20T00:41:13.170Z,967.23
2017-01-20T00:42:12.140Z,967.23
2017-01-20T00:43:12.879Z,967.26
2017-01-20T00:44:12.907Z,967.29
2017-01-20T00:45:13.396Z,967.30
2017-01-20T00:46:13.367Z,967.24
2017-01-20T00:47:13.780Z,967.24
2017-01-20T00:48:13.329Z,967.23
2017-01-20T00:49:13.720Z,967.19
2017-01-20T00:50:12.721Z,967.22
2017-01-20T00:51:12.539Z,967.28
2017-01-20T00:52:13.182Z,967.25
2017-01-20T00:53:13.709Z,967.24
2017-01-20T00:54:14.231Z,967.20
2017-01-20T00:55:14.274Z,967.19
2017-01-20T00:56:13.169Z,967.25
2017-01-20T00:57:12.879Z,967.22
2017-01-20T00:58:12.233Z,967.23
2017-01-20T00:59:13.186Z,967.21
2017-01-20T01:00:13.654Z,967.16
2017-01-20T01:01:16.343Z,967.18
2017-01-20T01:02:12.398Z,967.20
2017-01-20T01:03:13.644Z,967.16
2017-01-20T01:04:13.520Z,967.13
2017-01-20T01:05:14.241Z,967.15
2017-01-20T01:06:12.710Z,967.13
2017-01-20T01:07:12.958Z,967.13
2017-01-20T01:08:12.032Z,967.10
2017-01-20T01:09:13.944Z,967.09
2017-01-20T01:10:13.283Z,967.11
2017-01-20T01:11:15.840Z,967.09
2017-01-20T01:12:12.839Z,967.10
2017-01-20T01:13:14.016Z,967.08
2017-01-20T01:14:14.188Z,967.10
2017-01-20T01:15:13.979Z,967.09
2017-01-20T01:16:15.949Z,967.13
2017-01-20T01:17:14.614Z,967.12
2017-01-20T01:18:14.838Z,967.12
2017-01-20T01:19:14.098Z,967.09
2017-01-20T01:20:14.376Z,967.11
2017-01-20T01:21:15.217Z,967.07
2017-01-20T01:22:16.903Z,967.11
2017-01-20T01:23:14.555Z,967.10
2017-01-20T01:24:14.270Z,967.14
2017-01-20T01:25:13.884Z,967.17
2017-01-20T01:26:12.344Z,967.20
2017-01-20T01:27:14.701Z,967.17
2017-01-20T01:28:14.345Z,967.18
2017-01-20T01:29:13.619Z,967.18
2017-01-20T01:30:11.643Z,967.22
2017-01-20T01:31:14.536Z,967.23
2017-01-20T01:32:13.723Z,967.21
2017-01-20T01:33:13.297Z,967.18
2017-01-20T01:34:15.156Z,967.19
2017-01-20T01:35:15.743Z,967.27
2017-01-20T01:36:11.056Z,967.27
2017-01-20T01:37:13.316Z,967.32
2017-01-20T01:38:13.118Z,967.37
2017-01-20T01:39:13.928Z,967.24
2017-01-20T01:40:14.536Z,967.26
2017-01-20T01:41:13.372Z,967.21
2017-01-20T01:42:15.928Z,967.26
2017-01-20T01:43:12.713Z,967.23
2017-01-20T01:44:13.773Z,967.20
2017-01-20T01:45:12.198Z,967.23
2017-01-20T01:46:14.715Z,967.17
2017-01-20T01:47:13.713Z,967.15
2017-01-20T01:48:13.111Z,967.15
2017-01-20T01:49:13.015Z,967.18
2017-01-20T01:50:14.354Z,967.19
2017-01-20T01:51:12.474Z,967.19
2017-01-20T01:52:14.822Z,967.24
2017-01-20T01:53:14.564Z,967.22
2017-01-20T01:54:13.846Z,967.23
2017-01-20T01:55:12.417Z,967.17
2017-01-20T01:56:12.647Z,967.17
2017-01-20T01:57:14.248Z,967.26
2017-01-20T01:58:15.205Z,967.19
2017-01-20T01:59:11.116Z,967.20
2017-01-20T02:00:12.788Z,967.19
2017-01-20T02:01:12.304Z,967.12
2017-01-20T02:02:12.985Z,967.13
2017-01-20T02:03:15.361Z,967.13
2017-01-20T02:04:13.783Z,967.09
2017-01-20T02:05:12.298Z,967.11
2017-01-20T02:06:16.403Z,967.14
2017-01-20T02:07:15.943Z,967.17
2017-01-20T02:08:13.652Z,967.11
2017-01-20T02:09:15.619Z,967.10
2017-01-20T02:10:13.131Z,967.03
2017-01-20T02:11:11.176Z,967.01
2017-01-20T02:12:12.857Z,967.02
2017-01-20T02:13:14.460Z,966.97
2017-01-20T02:14:14.300Z,967.02
2017-01-20T02:15:12.254Z,967.01
2017-01-20T02:16:14.635Z,966.98
2017-01-20T02:17:12.989Z,966.93
2017-01-20T02:18:13.783Z,966.90
2017-01-20T02:19:14.351Z,966.86
2017-01-20T02:20:13.737Z,966.81
2017-01-20T02:21:13.688Z,966.83
2017-01-20T02:22:12.674Z,966.78
2017-01-20T02:23:13.042Z,966.79
2017-01-20T02:24:14.441Z,966.83
2017-01-20T02:25:12.631Z,966.80
2017-01-20T02:26:13.246Z,966.75
2017-01-20T02:27:14.026Z,966.76
2017-01-20T02:28:13.147Z,966.79
2017-01-20T02:29:12.761Z,966.82
2017-01-20T02:30:12.486Z,966.80
2017-01-20T02:31:14.296Z,966.83
2017-01-20T02:32:13.626Z,966.82
2017-01-20T02:33:12.690Z,966.84
2017-01-20T02:34:12.791Z,966.82
2017-01-20T02:35:15.457Z,966.82
2017-01-20T02:36:12.597Z,966.85
2017-01-20T02:37:13.960Z,966.83
2017-01-20T02:38:12.093Z,966.83
2017-01-20T02:39:13.616Z,966.85
2017-01-20T02:40:13.585Z,966.85
2017-01-20T02:41:14.434Z,966.81
2017-01-20T02:42:12.438Z,966.79
2017-01-20T02:43:13.865Z,966.83
2017-01-20T02:44:14.195Z,966.82
2017-01-20T02:45:12.135Z,966.83
2017-01-20T02:46:14.718Z,966.85
2017-01-20T02:47:12.352Z,966.81
2017-01-20T02:48:13.096Z,966.83
2017-01-20T02:49:14.488Z,966.79
2017-01-20T02:50:13.526Z,966.80
2017-01-20T02:51:12.462Z,966.78
2017-01-20T02:52:12.436Z,966.78
2017-01-20T02:53:13.091Z,966.78
2017-01-20T02:54:15.408Z,966.79
2017-01-20T02:55:15.751Z,966.76
2017-01-20T02:56:14.051Z,966.75
2017-01-20T02:57:13.341Z,966.72
2017-01-20T02:58:15.499Z,966.76
2017-01-20T02:59:15.658Z,966.74
2017-01-20T03:00:13.344Z,966.80
2017-01-20T03:01:12.407Z,966.79
2017-01-20T03:02:12.891Z,966.82
2017-01-20T03:03:11.854Z,966.84
2017-01-20T03:04:13.650Z,966.89
2017-01-20T03:05:12.272Z,966.91
2017-01-20T03:06:12.315Z,966.87
2017-01-20T03:07:12.365Z,966.85
2017-01-20T03:08:15.973Z,966.83
2017-01-20T03:09:12.586Z,966.89
2017-01-20T03:10:15.690Z,966.83
2017-01-20T03:11:12.448Z,966.81
2017-01-20T03:12:13.674Z,966.79
2017-01-20T03:13:14.942Z,966.74
2017-01-20T03:14:13.127Z,966.77
2017-01-20T03:15:11.239Z,966.81
2017-01-20T03:16:12.655Z,966.78
2017-01-20T03:17:16.510Z,966.72
2017-01-20T03:18:13.374Z,966.74
2017-01-20T03:19:12.633Z,966.76
2017-01-20T03:20:14.344Z,966.74
2017-01-20T03:21:13.172Z,966.75
2017-01-20T03:22:14.034Z,966.75
2017-01-20T03:23:15.274Z,966.74
2017-01-20T03:24:12.902Z,966.73
2017-01-20T03:25:12.507Z,966.67
2017-01-20T03:26:14.267Z,966.63
2017-01-20T03:27:15.932Z,966.68
2017-01-20T03:28:12.534Z,966.60
2017-01-20T03:29:13.414Z,966.60
2017-01-20T03:30:13.549Z,966.64
2017-01-20T03:31:13.177Z,966.61
2017-01-20T03:32:14.432Z,966.66
2017-01-20T03:33:12.042Z,966.69
2017-01-20T03:34:12.463Z,966.68
2017-01-20T03:35:12.428Z,966.71
2017-01-20T03:36:13.405Z,966.70
2017-01-20T03:37:14.453Z,966.68
2017-01-20T03:38:13.704Z,966.68
2017-01-20T03:39:15.199Z,966.76
2017-01-20T03:40:11.074Z,966.77
2017-01-20T03:41:13.114Z,966.80
2017-01-20T03:42:14.533Z,966.78
2017-01-20T03:43:12.500Z,966.72
2017-01-20T03:44:13.207Z,966.74
2017-01-20T03:45:12.570Z,966.75
2017-01-20T03:46:13.517Z,966.73
2017-01-20T03:47:12.661Z,966.73
2017-01-20T03:48:12.757Z,966.72
2017-01-20T03:49:14.070Z,966.72
2017-01-20T03:50:11.236Z,966.72
2017-01-20T03:51:13.000Z,966.69
2017-01-20T03:52:14.092Z,966.70
2017-01-20T03:53:12.538Z,966.69
2017-01-20T03:54:12.432Z,966.71
2017-01-20T03:55:16.804Z,966.70
2017-01-20T03:56:12.440Z,966.72
2017-01-20T03:57:12.536Z,966.67
2017-01-20T03:58:10.740Z,966.69
2017-01-20T03:59:12.336Z,966.66
2017-01-20T04:00:12.471Z,966.66
2017-01-20T04:01:10.891Z,966.72
2017-01-20T04:02:12.600Z,966.69
2017-01-20T04:03:14.307Z,966.71
2017-01-20T04:04:12.747Z,966.70
2017-01-20T04:05:11.828Z,966.70
2017-01-20T04:06:12.292Z,966.67
2017-01-20T04:07:13.425Z,966.66
2017-01-20T04:08:12.823Z,966.68
2017-01-20T04:09:11.872Z,966.73
2017-01-20T04:10:13.164Z,966.69
2017-01-20T04:11:13.165Z,966.65
2017-01-20T04:12:11.359Z,966.69
2017-01-20T04:13:12.604Z,966.66
2017-01-20T04:14:12.624Z,966.66
2017-01-20T04:15:12.972Z,966.64
2017-01-20T04:16:12.312Z,966.64
2017-01-20T04:17:12.706Z,966.63
2017-01-20T04:18:10.789Z,966.60
2017-01-20T04:19:13.022Z,966.61
2017-01-20T04:20:12.124Z,966.64
2017-01-20T04:21:14.218Z,966.57
2017-01-20T04:22:12.910Z,966.56
2017-01-20T04:23:11.999Z,966.58
2017-01-20T04:24:12.854Z,966.56
2017-01-20T04:25:10.760Z,966.58
2017-01-20T04:26:12.302Z,966.58
2017-01-20T04:27:12.742Z,966.64
2017-01-20T04:28:12.673Z,966.60
2017-01-20T04:29:13.182Z,966.60
2017-01-20T04:30:12.676Z,966.57
2017-01-20T04:31:12.710Z,966.57
2017-01-20T04:32:12.119Z,966.56
2017-01-20T04:33:14.471Z,966.52
2017-01-20T04:34:14.898Z,966.54
2017-01-20T04:35:12.661Z,966.50
2017-01-20T04:36:13.741Z,966.54
2017-01-20T04:37:12.411Z,966.54
2017-01-20T04:38:10.538Z,966.52
2017-01-20T04:39:11.938Z,966.56
2017-01-20T04:40:12.961Z,966.59
2017-01-20T04:41:12.999Z,966.60
2017-01-20T04:42:15.629Z,966.56
2017-01-20T04:43:13.821Z,966.55
2017-01-20T04:44:12.370Z,966.55
2017-01-20T04:45:12.883Z,966.57
2017-01-20T04:46:12.856Z,966.59
2017-01-20T04:47:11.828Z,966.57
2017-01-20T04:48:11.778Z,966.60
2017-01-20T04:49:10.944Z,966.55
2017-01-20T04:50:11.143Z,966.56
2017-01-20T04:51:12.038Z,966.51
2017-01-20T04:52:12.519Z,966.54
2017-01-20T04:53:12.722Z,966.54
2017-01-20T04:54:12.210Z,966.57
2017-01-20T04:55:12.180Z,966.53
2017-01-20T04:56:12.777Z,966.57
2017-01-20T04:57:12.970Z,966.61
2017-01-20T04:58:12.041Z,966.66
2017-01-20T04:59:12.390Z,966.65
2017-01-20T05:00:13.961Z,966.61
2017-01-20T05:01:12.640Z,966.64
2017-01-20T05:02:13.270Z,966.65
2017-01-20T05:03:13.714Z,966.67
2017-01-20T05:04:13.286Z,966.64
2017-01-20T05:05:13.513Z,966.63
2017-01-20T05:06:13.358Z,966.61
2017-01-20T05:07:14.557Z,966.62
2017-01-20T05:08:12.762Z,966.66
2017-01-20T05:09:13.634Z,966.66
2017-01-20T05:10:12.011Z,966.68
2017-01-20T05:11:14.833Z,966.63
2017-01-20T05:12:11.946Z,966.61
2017-01-20T05:13:13.532Z,966.62
2017-01-20T05:14:13.545Z,966.65
2017-01-20T05:15:17.175Z,966.68
2017-01-20T05:16:12.255Z,966.69
2017-01-20T05:17:15.584Z,966.69
2017-01-20T05:18:11.557Z,966.63
2017-01-20T05:19:13.469Z,966.65
2017-01-20T05:20:12.185Z,966.65
2017-01-20T05:21:12.734Z,966.61
2017-01-20T05:22:12.693Z,966.61
2017-01-20T05:23:12.462Z,966.63
2017-01-20T05:24:13.292Z,966.57
2017-01-20T05:25:18.781Z,966.62
2017-01-20T05:26:18.212Z,966.60
2017-01-20T05:27:17.230Z,966.58
2017-01-20T05:28:14.275Z,966.61
2017-01-20T05:29:12.201Z,966.59
2017-01-20T05:30:14.902Z,966.59
2017-01-20T05:31:12.930Z,966.59
2017-01-20T05:32:14.195Z,966.63
2017-01-20T05:33:12.071Z,966.60
2017-01-20T05:34:14.263Z,966.59
2017-01-20T05:35:14.715Z,966.58
2017-01-20T05:36:12.601Z,966.59
2017-01-20T05:37:12.536Z,966.59
2017-01-20T05:38:13.299Z,966.58
2017-01-20T05:39:12.315Z,966.58
2017-01-20T05:40:12.690Z,966.63
2017-01-20T05:41:13.732Z,966.58
2017-01-20T05:42:12.829Z,966.57
2017-01-20T05:43:13.286Z,966.53
2017-01-20T05:44:13.007Z,966.56
2017-01-20T05:45:14.261Z,966.56
2017-01-20T05:46:13.566Z,966.58
2017-01-20T05:47:13.789Z,966.57
2017-01-20T05:48:11.736Z,966.55
2017-01-20T05:49:13.400Z,966.54
2017-01-20T05:50:11.249Z,966.50
2017-01-20T05:51:12.995Z,966.54
2017-01-20T05:52:11.238Z,966.54
2017-01-20T05:53:12.201Z,966.52
2017-01-20T05:54:14.126Z,966.53
2017-01-20T05:55:12.178Z,966.53
2017-01-20T05:56:13.665Z,966.51
2017-01-20T05:57:11.694Z,966.49
2017-01-20T05:58:11.816Z,966.46
2017-01-20T05:59:12.278Z,966.47
2017-01-20T06:00:12.696Z,966.48
2017-01-20T06:01:13.227Z,966.46
2017-01-20T06:02:15.837Z,966.46
2017-01-20T06:03:12.655Z,966.47
2017-01-20T06:04:16.330Z,966.46
2017-01-20T06:05:13.227Z,966.46
2017-01-20T06:06:12.362Z,966.46
2017-01-20T06:07:12.244Z,966.46
2017-01-20T06:08:13.541Z,966.51
2017-01-20T06:09:12.253Z,966.48
2017-01-20T06:10:12.522Z,966.49
2017-01-20T06:11:16.889Z,966.45
2017-01-20T06:12:10.808Z,966.46
2017-01-20T06:13:12.460Z,966.44
2017-01-20T06:14:12.451Z,966.44
2017-01-20T06:15:12.859Z,966.47
2017-01-20T06:16:12.926Z,966.46
2017-01-20T06:17:13.081Z,966.48
2017-01-20T06:18:13.009Z,966.52
2017-01-20T06:19:13.308Z,966.50
2017-01-20T06:20:12.329Z,966.53
2017-01-20T06:21:12.219Z,966.54
2017-01-20T06:22:14.278Z,966.52
2017-01-20T06:23:16.668Z,966.54
2017-01-20T06:24:12.484Z,966.56
2017-01-20T06:25:12.581Z,966.56
2017-01-20T06:26:13.648Z,966.54
2017-01-20T06:27:14.698Z,966.57
2017-01-20T06:28:14.468Z,966.58
2017-01-20T06:29:14.014Z,966.57
2017-01-20T06:30:12.658Z,966.55
2017-01-20T06:31:12.810Z,966.56
2017-01-20T06:32:12.514Z,966.56
2017-01-20T06:33:12.921Z,966.55
2017-01-20T06:34:12.645Z,966.54
2017-01-20T06:35:13.013Z,966.57
2017-01-20T06:36:12.089Z,966.59
2017-01-20T06:37:14.854Z,966.58
2017-01-20T06:38:12.364Z,966.64
2017-01-20T06:39:13.029Z,966.65
2017-01-20T06:40:12.732Z,966.66
2017-01-20T06:41:12.402Z,966.64
2017-01-20T06:42:16.237Z,966.71
2017-01-20T06:43:12.152Z,966.72
2017-01-20T06:44:12.076Z,966.69
2017-01-20T06:45:16.755Z,966.68
2017-01-20T06:46:12.306Z,966.74
2017-01-20T06:47:11.319Z,966.75
2017-01-20T06:48:16.400Z,966.78
2017-01-20T06:49:12.837Z,966.74
2017-01-20T06:50:11.861Z,966.79
2017-01-20T06:51:15.272Z,966.76
2017-01-20T06:52:13.172Z,966.80
2017-01-20T06:53:12.952Z,966.80
2017-01-20T06:54:10.704Z,966.78
2017-01-20T06:55:15.460Z,966.79
2017-01-20T06:56:14.065Z,966.78
2017-01-20T06:57:12.823Z,966.81
2017-01-20T06:58:12.563Z,966.83
2017-01-20T06:59:14.785Z,966.90
2017-01-20T07:00:12.699Z,966.93
2017-01-20T07:01:13.318Z,966.96
2017-01-20T07:02:12.305Z,967.01
2017-01-20T07:03:13.832Z,967.01
2017-01-20T07:04:13.845Z,967.02
2017-01-20T07:05:12.246Z,967.05
2017-01-20T07:06:14.436Z,967.02
2017-01-20T07:07:12.476Z,967.03
2017-01-20T07:08:12.490Z,967.07
2017-01-20T07:09:12.457Z,967.07
2017-01-20T07:10:12.464Z,967.03
2017-01-20T07:11:12.919Z,967.04
2017-01-20T07:12:11.991Z,967.04
2017-01-20T07:13:13.874Z,967.01
2017-01-20T07:14:14.059Z,966.99
2017-01-20T07:15:12.011Z,966.98
2017-01-20T07:16:11.887Z,966.97
2017-01-20T07:17:13.075Z,966.96
2017-01-20T07:18:12.197Z,966.99
2017-01-20T07:19:14.465Z,966.98
2017-01-20T07:20:12.425Z,966.98
2017-01-20T07:21:12.949Z,966.95
2017-01-20T07:22:13.452Z,966.97
2017-01-20T07:23:12.998Z,967.03
2017-01-20T07:24:12.033Z,967.03
2017-01-20T07:25:14.676Z,966.97
2017-01-20T07:26:14.751Z,967.06
2017-01-20T07:27:12.352Z,967.05
2017-01-20T07:28:12.972Z,967.04
2017-01-20T07:29:13.170Z,967.03
2017-01-20T07:30:14.701Z,967.04
2017-01-20T07:31:15.295Z,967.05
2017-01-20T07:32:13.218Z,967.03
2017-01-20T07:33:12.703Z,967.04
2017-01-20T07:34:10.765Z,967.02
2017-01-20T07:35:10.475Z,967.04
2017-01-20T07:36:10.877Z,967.07
2017-01-20T07:37:11.699Z,967.11
2017-01-20T07:38:13.107Z,967.02
2017-01-20T07:39:12.793Z,967.03
2017-01-20T07:40:13.295Z,967.05
2017-01-20T07:41:12.195Z,967.03
2017-01-20T07:42:12.074Z,967.05
2017-01-20T07:43:12.057Z,967.03
2017-01-20T07:44:12.685Z,967.06
2017-01-20T07:45:15.235Z,967.04
2017-01-20T07:46:13.091Z,967.06
2017-01-20T07:47:14.115Z,967.06
2017-01-20T07:48:13.007Z,967.02
2017-01-20T07:49:12.054Z,967.07
2017-01-20T07:50:15.433Z,967.06
2017-01-20T07:51:12.561Z,967.06
2017-01-20T07:52:12.637Z,967.06
2017-01-20T07:53:13.443Z,967.06
2017-01-20T07:54:12.566Z,967.03
2017-01-20T07:55:13.526Z,967.05
2017-01-20T07:56:12.543Z,967.03
2017-01-20T07:57:13.005Z,967.03
2017-01-20T07:58:12.654Z,967.04
2017-01-20T07:59:11.393Z,967.05
2017-01-20T08:00:14.671Z,967.07
2017-01-20T08:01:14.510Z,967.11
2017-01-20T08:02:14.764Z,967.11
2017-01-20T08:03:12.337Z,967.04
2017-01-20T08:04:13.213Z,967.04
2017-01-20T08:05:12.884Z,967.08
2017-01-20T08:06:12.581Z,967.07
2017-01-20T08:07:12.634Z,967.07
2017-01-20T08:08:12.543Z,967.07
2017-01-20T08:09:12.561Z,967.06
2017-01-20T08:10:13.212Z,967.05
2017-01-20T08:11:13.146Z,967.05
2017-01-20T08:12:13.209Z,967.03
2017-01-20T08:13:13.123Z,967.06
2017-01-20T08:14:12.742Z,967.01
2017-01-20T08:15:12.671Z,967.01
2017-01-20T08:16:12.799Z,967.04
2017-01-20T08:17:10.709Z,967.05
2017-01-20T08:18:13.057Z,967.07
2017-01-20T08:19:12.849Z,967.06
2017-01-20T08:20:11.879Z,967.08
2017-01-20T08:21:12.471Z,967.10
2017-01-20T08:22:13.463Z,967.08
2017-01-20T08:23:15.617Z,967.14
2017-01-20T08:24:12.617Z,967.10
2017-01-20T08:25:14.448Z,967.12
2017-01-20T08:26:12.758Z,967.12
2017-01-20T08:27:11.611Z,967.11
2017-01-20T08:28:13.530Z,967.12
2017-01-20T08:29:14.834Z,967.09
2017-01-20T08:30:12.931Z,967.08
2017-01-20T08:31:11.899Z,967.09
2017-01-20T08:32:12.862Z,967.08
2017-01-20T08:33:11.908Z,967.11
2017-01-20T08:34:13.300Z,967.10
2017-01-20T08:35:14.785Z,967.13
2017-01-20T08:36:12.644Z,967.15
2017-01-20T08:37:14.530Z,967.16
2017-01-20T08:38:13.320Z,967.21
2017-01-20T08:39:12.456Z,967.21
2017-01-20T08:40:12.922Z,967.20
2017-01-20T08:41:12.432Z,967.20
2017-01-20T08:42:14.232Z,967.22
2017-01-20T08:43:12.883Z,967.20
2017-01-20T08:44:13.996Z,967.24
2017-01-20T08:45:12.694Z,967.26
2017-01-20T08:46:13.509Z,967.24
2017-01-20T08:47:12.524Z,967.28
2017-01-20T08:48:12.485Z,967.27
2017-01-20T08:49:12.931Z,967.28
2017-01-20T08:50:10.871Z,967.29
2017-01-20T08:51:12.152Z,967.26
2017-01-20T08:52:12.046Z,967.24
2017-01-20T08:53:12.836Z,967.24
2017-01-20T08:54:11.901Z,967.25
2017-01-20T08:55:12.665Z,967.28
2017-01-20T08:56:13.825Z,967.29
2017-01-20T08:57:12.738Z,967.29
2017-01-20T08:58:14.439Z,967.33
2017-01-20T08:59:12.507Z,967.33
2017-01-20T09:00:12.513Z,967.34
2017-01-20T09:01:13.063Z,967.33
2017-01-20T09:02:14.108Z,967.32
2017-01-20T09:03:12.103Z,967.34
2017-01-20T09:04:12.081Z,967.29
2017-01-20T09:05:12.496Z,967.31
2017-01-20T09:06:12.590Z,967.32
2017-01-20T09:07:13.084Z,967.34
2017-01-20T09:08:13.888Z,967.34
2017-01-20T09:09:12.758Z,967.40
2017-01-20T09:10:12.445Z,967.37
2017-01-20T09:11:11.090Z,967.37
2017-01-20T09:12:14.766Z,967.35
2017-01-20T09:13:12.339Z,967.39
2017-01-20T09:14:13.096Z,967.37
2017-01-20T09:15:12.192Z,967.38
2017-01-20T09:16:12.794Z,967.37
2017-01-20T09:17:13.550Z,967.33
2017-01-20T09:18:16.966Z,967.37
2017-01-20T09:19:11.989Z,967.34
2017-01-20T09:20:12.588Z,967.35
2017-01-20T09:21:13.860Z,967.37
2017-01-20T09:22:11.677Z,967.38
2017-01-20T09:23:12.987Z,967.40
2017-01-20T09:24:12.008Z,967.40
2017-01-20T09:25:12.586Z,967.37
2017-01-20T09:26:11.610Z,967.39
2017-01-20T09:27:12.623Z,967.42
2017-01-20T09:28:12.505Z,967.38
2017-01-20T09:29:12.403Z,967.37
2017-01-20T09:30:12.358Z,967.39
2017-01-20T09:31:12.272Z,967.35
2017-01-20T09:32:12.064Z,967.36
2017-01-20T09:33:12.059Z,967.34
2017-01-20T09:34:11.849Z,967.34
2017-01-20T09:35:11.842Z,967.37
2017-01-20T09:36:11.855Z,967.38
2017-01-20T09:37:14.163Z,967.41
2017-01-20T09:38:12.149Z,967.39
2017-01-20T09:39:12.132Z,967.38
2017-01-20T09:40:12.873Z,967.36
2017-01-20T09:41:11.919Z,967.43
2017-01-20T09:42:12.772Z,967.39
2017-01-20T09:43:12.728Z,967.38
2017-01-20T09:44:12.545Z,967.41
2017-01-20T09:45:13.098Z,967.39
2017-01-20T09:46:12.224Z,967.39
2017-01-20T09:47:12.342Z,967.40
2017-01-20T09:48:11.124Z,967.34
2017-01-20T09:49:12.089Z,967.39
2017-01-20T09:50:10.792Z,967.37
2017-01-20T09:51:13.521Z,967.40
2017-01-20T09:52:13.178Z,967.41
2017-01-20T09:53:12.965Z,967.39
2017-01-20T09:54:13.354Z,967.44
2017-01-20T09:55:12.508Z,967.45
2017-01-20T09:56:13.365Z,967.46
2017-01-20T09:57:13.087Z,967.45
2017-01-20T09:58:13.611Z,967.47
2017-01-20T09:59:13.417Z,967.45
2017-01-20T10:00:12.458Z,967.47
2017-01-20T10:01:12.430Z,967.49
2017-01-20T10:02:13.679Z,967.45
2017-01-20T10:03:11.727Z,967.46
2017-01-20T10:04:12.128Z,967.45
2017-01-20T10:05:12.938Z,967.44
2017-01-20T10:06:10.685Z,967.48
2017-01-20T10:07:11.730Z,967.50
2017-01-20T10:08:12.737Z,967.44
2017-01-20T10:09:14.040Z,967.41
2017-01-20T10:10:11.982Z,967.40
2017-01-20T10:11:11.919Z,967.42
2017-01-20T10:12:11.862Z,967.44
2017-01-20T10:13:12.563Z,967.41
2017-01-20T10:14:11.348Z,967.35
2017-01-20T10:15:14.739Z,967.36
2017-01-20T10:16:12.374Z,967.37
2017-01-20T10:17:12.945Z,967.37
2017-01-20T10:18:12.520Z,967.33
2017-01-20T10:19:13.405Z,967.32
2017-01-20T10:20:12.260Z,967.31
2017-01-20T10:21:12.219Z,967.31
2017-01-20T10:22:12.905Z,967.34
2017-01-20T10:23:11.889Z,967.31
2017-01-20T10:24:12.584Z,967.33
2017-01-20T10:25:13.011Z,967.35
2017-01-20T10:26:11.889Z,967.31
2017-01-20T10:27:10.731Z,967.26
2017-01-20T10:28:11.824Z,967.27
2017-01-20T10:29:12.562Z,967.26
2017-01-20T10:30:12.978Z,967.25
2017-01-20T10:31:12.509Z,967.27
2017-01-20T10:32:12.958Z,967.25
2017-01-20T10:33:12.709Z,967.21
2017-01-20T10:34:12.616Z,967.21
2017-01-20T10:35:11.149Z,967.25
2017-01-20T10:36:13.320Z,967.22
2017-01-20T10:37:12.256Z,967.25
2017-01-20T10:38:12.345Z,967.25
2017-01-20T10:39:12.375Z,967.25
2017-01-20T10:40:12.878Z,967.26
2017-01-20T10:41:11.836Z,967.25
2017-01-20T10:42:11.362Z,967.24
2017-01-20T10:43:15.659Z,967.21
2017-01-20T10:44:13.219Z,967.19
2017-01-20T10:45:12.759Z,967.17
2017-01-20T10:46:12.479Z,967.16
2017-01-20T10:47:13.047Z,967.15
2017-01-20T10:48:11.945Z,967.16
2017-01-20T10:49:12.542Z,967.11
2017-01-20T10:50:12.492Z,967.10
2017-01-20T10:51:11.507Z,967.04
2017-01-20T10:52:11.202Z,967.02
2017-01-20T10:53:12.418Z,966.99
2017-01-20T10:54:12.952Z,967.11
2017-01-20T10:55:12.005Z,967.08
2017-01-20T10:56:15.460Z,967.07
2017-01-20T10:57:12.145Z,967.08
2017-01-20T10:58:12.912Z,967.11
2017-01-20T10:59:11.932Z,967.10
2017-01-20T11:00:12.383Z,967.09
2017-01-20T11:01:13.041Z,967.10
2017-01-20T11:02:12.069Z,967.06
2017-01-20T11:03:12.625Z,967.06
2017-01-20T11:04:14.397Z,967.02
2017-01-20T11:05:12.692Z,967.01
2017-01-20T11:06:15.306Z,966.98
2017-01-20T11:07:12.983Z,966.97
2017-01-20T11:08:12.629Z,966.95
2017-01-20T11:09:12.467Z,967.00
2017-01-20T11:10:13.048Z,966.94
2017-01-20T11:11:12.492Z,966.90
2017-01-20T11:12:12.562Z,966.91
2017-01-20T11:13:15.955Z,966.89
2017-01-20T11:14:12.440Z,966.93
2017-01-20T11:15:13.513Z,966.87
2017-01-20T11:16:13.069Z,966.84
2017-01-20T11:17:13.368Z,966.86
2017-01-20T11:18:12.661Z,966.90
2017-01-20T11:19:11.910Z,966.89
2017-01-20T11:20:12.298Z,966.84
2017-01-20T11:21:12.251Z,966.86
2017-01-20T11:22:12.838Z,966.86
2017-01-20T11:23:12.567Z,966.86
2017-01-20T11:24:13.551Z,966.81
2017-01-20T11:25:13.056Z,966.83
2017-01-20T11:26:12.687Z,966.76
2017-01-20T11:27:12.669Z,966.77
2017-01-20T11:28:12.551Z,966.77
2017-01-20T11:29:14.604Z,966.76
2017-01-20T11:30:12.559Z,966.73
2017-01-20T11:31:12.463Z,966.74
2017-01-20T11:32:12.511Z,966.73
2017-01-20T11:33:12.878Z,966.71
2017-01-20T11:34:12.927Z,966.74
2017-01-20T11:35:12.519Z,966.71
2017-01-20T11:36:11.176Z,966.70
2017-01-20T11:37:12.473Z,966.73
2017-01-20T11:38:12.503Z,966.79
2017-01-20T11:39:14.045Z,966.74
2017-01-20T11:40:12.523Z,966.78
2017-01-20T11:41:12.377Z,966.74
2017-01-20T11:42:12.836Z,966.74
2017-01-20T11:43:12.739Z,966.74
2017-01-20T11:44:14.820Z,966.74
2017-01-20T11:45:13.802Z,966.74
2017-01-20T11:46:12.673Z,966.77
2017-01-20T11:47:14.375Z,966.72
2017-01-20T11:48:12.863Z,966.71
2017-01-20T11:49:13.454Z,966.65
2017-01-20T11:50:12.459Z,966.65
2017-01-20T11:51:12.290Z,966.64
2017-01-20T11:52:12.158Z,966.60
2017-01-20T11:53:12.836Z,966.64
2017-01-20T11:54:12.613Z,966.58
2017-01-20T11:55:13.335Z,966.56
2017-01-20T11:56:12.437Z,966.53
2017-01-20T11:57:13.296Z,966.54
2017-01-20T11:58:13.446Z,966.50
2017-01-20T11:59:12.531Z,966.51
2017-01-20T12:00:14.776Z,966.54
2017-01-20T12:01:12.064Z,966.53
2017-01-20T12:02:11.985Z,966.54
2017-01-20T12:03:12.319Z,966.49
2017-01-20T12:04:12.303Z,966.53
2017-01-20T12:05:14.571Z,966.50
2017-01-20T12:06:12.411Z,966.54
2017-01-20T12:07:12.978Z,966.52
2017-01-20T12:08:10.986Z,966.54
2017-01-20T12:09:13.825Z,966.49
2017-01-20T12:10:12.646Z,966.47
2017-01-20T12:11:14.773Z,966.44
2017-01-20T12:12:12.588Z,966.45
2017-01-20T12:13:12.508Z,966.39
2017-01-20T12:14:12.809Z,966.41
2017-01-20T12:15:11.889Z,966.38
2017-01-20T12:16:12.343Z,966.38
2017-01-20T12:17:14.187Z,966.37
2017-01-20T12:18:13.033Z,966.35
2017-01-20T12:19:11.924Z,966.35
2017-01-20T12:20:11.862Z,966.36
2017-01-20T12:21:11.767Z,966.33
2017-01-20T12:22:11.602Z,966.34
2017-01-20T12:23:10.046Z,966.31
2017-01-20T12:24:12.387Z,966.31
2017-01-20T12:25:12.985Z,966.33
2017-01-20T12:26:12.308Z,966.30
2017-01-20T12:27:14.272Z,966.30
2017-01-20T12:28:13.829Z,966.31